sensor_id;sensor_type;location;lat;lon;timestamp;P1;durP1;ratioP1;P2;durP2;ratioP2
64832;SDS011;51290;45.060;38.948;2023-11-18T00:00:19;15.50;;;10.43;;
64832;SDS011;51290;45.060;38.948;2023-11-18T00:02:46;13.98;;;9.98;;
64832;SDS011;51290;45.060;38.948;2023-11-18T00:05:12;12.73;;;8.88;;
64832;SDS011;51290;45.060;38.948;2023-11-18T00:07:39;13.10;;;8.70;;
64832;SDS011;51290;45.060;38.948;2023-11-18T00:10:05;9.25;;;8.13;;
64832;SDS011;51290;45.060;38.948;2023-11-18T00:12:32;10.82;;;7.38;;
64832;SDS011;51290;45.060;38.948;2023-11-18T00:15:02;13.35;;;8.82;;
64832;SDS011;51290;45.060;38.948;2023-11-18T00:17:32;11.35;;;8.15;;
64832;SDS011;51290;45.060;38.948;2023-11-18T00:19:58;10.52;;;8.07;;
64832;SDS011;51290;45.060;38.948;2023-11-18T00:22:24;10.95;;;8.32;;
64832;SDS011;51290;45.060;38.948;2023-11-18T00:24:53;10.82;;;8.43;;
64832;SDS011;51290;45.060;38.948;2023-11-18T00:27:20;13.30;;;7.82;;
64832;SDS011;51290;45.060;38.948;2023-11-18T00:29:49;11.77;;;8.63;;
64832;SDS011;51290;45.060;38.948;2023-11-18T00:32:15;14.52;;;8.50;;
64832;SDS011;51290;45.060;38.948;2023-11-18T00:34:41;11.02;;;8.68;;
64832;SDS011;51290;45.060;38.948;2023-11-18T00:37:07;10.25;;;8.23;;
64832;SDS011;51290;45.060;38.948;2023-11-18T00:39:35;11.93;;;8.48;;
64832;SDS011;51290;45.060;38.948;2023-11-18T00:42:02;15.73;;;8.68;;
64832;SDS011;51290;45.060;38.948;2023-11-18T00:44:28;14.32;;;8.82;;
64832;SDS011;51290;45.060;38.948;2023-11-18T00:46:54;9.52;;;6.85;;
64832;SDS011;51290;45.060;38.948;2023-11-18T00:49:23;11.90;;;7.32;;
64832;SDS011;51290;45.060;38.948;2023-11-18T00:51:51;10.90;;;7.80;;
64832;SDS011;51290;45.060;38.948;2023-11-18T00:54:17;12.13;;;8.23;;
64832;SDS011;51290;45.060;38.948;2023-11-18T00:56:43;11.13;;;8.10;;
64832;SDS011;51290;45.060;38.948;2023-11-18T00:59:09;9.32;;;7.90;;
64832;SDS011;51290;45.060;38.948;2023-11-18T01:01:35;11.40;;;8.32;;
64832;SDS011;51290;45.060;38.948;2023-11-18T01:04:02;11.02;;;7.63;;
64832;SDS011;51290;45.060;38.948;2023-11-18T01:06:29;9.18;;;7.50;;
64832;SDS011;51290;45.060;38.948;2023-11-18T01:08:55;9.27;;;7.22;;
64832;SDS011;51290;45.060;38.948;2023-11-18T01:11:21;10.52;;;8.35;;
64832;SDS011;51290;45.060;38.948;2023-11-18T01:13:49;9.45;;;7.65;;
64832;SDS011;51290;45.060;38.948;2023-11-18T01:16:15;12.45;;;8.45;;
64832;SDS011;51290;45.060;38.948;2023-11-18T01:18:42;9.63;;;7.78;;
64832;SDS011;51290;45.060;38.948;2023-11-18T01:21:08;9.20;;;7.18;;
64832;SDS011;51290;45.060;38.948;2023-11-18T01:23:38;10.52;;;7.68;;
64832;SDS011;51290;45.060;38.948;2023-11-18T01:26:08;13.95;;;9.40;;
64832;SDS011;51290;45.060;38.948;2023-11-18T01:28:35;9.98;;;7.28;;
64832;SDS011;51290;45.060;38.948;2023-11-18T01:31:11;9.85;;;7.45;;
64832;SDS011;51290;45.060;38.948;2023-11-18T01:33:39;14.43;;;8.18;;
64832;SDS011;51290;45.060;38.948;2023-11-18T01:36:06;9.70;;;7.97;;
64832;SDS011;51290;45.060;38.948;2023-11-18T01:38:36;9.73;;;8.00;;
64832;SDS011;51290;45.060;38.948;2023-11-18T01:41:03;10.57;;;8.68;;
64832;SDS011;51290;45.060;38.948;2023-11-18T01:43:30;10.35;;;8.32;;
64832;SDS011;51290;45.060;38.948;2023-11-18T01:45:59;12.25;;;8.40;;
64832;SDS011;51290;45.060;38.948;2023-11-18T01:48:28;10.38;;;8.10;;
64832;SDS011;51290;45.060;38.948;2023-11-18T01:50:56;12.38;;;7.55;;
64832;SDS011;51290;45.060;38.948;2023-11-18T01:53:23;11.40;;;8.10;;
64832;SDS011;51290;45.060;38.948;2023-11-18T01:55:50;11.98;;;9.55;;
64832;SDS011;51290;45.060;38.948;2023-11-18T01:58:16;11.20;;;8.63;;
64832;SDS011;51290;45.060;38.948;2023-11-18T02:00:45;12.18;;;10.15;;
64832;SDS011;51290;45.060;38.948;2023-11-18T02:03:14;14.30;;;11.25;;
64832;SDS011;51290;45.060;38.948;2023-11-18T02:05:41;18.27;;;11.93;;
64832;SDS011;51290;45.060;38.948;2023-11-18T02:08:07;14.23;;;10.02;;
64832;SDS011;51290;45.060;38.948;2023-11-18T02:10:48;14.18;;;10.68;;
64832;SDS011;51290;45.060;38.948;2023-11-18T02:13:24;12.95;;;9.70;;
64832;SDS011;51290;45.060;38.948;2023-11-18T02:15:56;11.95;;;9.10;;
64832;SDS011;51290;45.060;38.948;2023-11-18T02:18:27;11.15;;;8.73;;
64832;SDS011;51290;45.060;38.948;2023-11-18T02:20:55;12.38;;;10.40;;
64832;SDS011;51290;45.060;38.948;2023-11-18T02:23:26;11.82;;;9.40;;
64832;SDS011;51290;45.060;38.948;2023-11-18T02:25:53;15.18;;;9.82;;
64832;SDS011;51290;45.060;38.948;2023-11-18T02:28:23;11.07;;;8.60;;
64832;SDS011;51290;45.060;38.948;2023-11-18T02:30:54;14.15;;;9.27;;
64832;SDS011;51290;45.060;38.948;2023-11-18T02:33:36;13.30;;;9.18;;
64832;SDS011;51290;45.060;38.948;2023-11-18T02:36:13;11.82;;;9.38;;
64832;SDS011;51290;45.060;38.948;2023-11-18T02:38:47;10.70;;;8.98;;
64832;SDS011;51290;45.060;38.948;2023-11-18T02:41:16;13.63;;;10.40;;
64832;SDS011;51290;45.060;38.948;2023-11-18T02:43:45;11.18;;;9.48;;
64832;SDS011;51290;45.060;38.948;2023-11-18T02:46:12;15.93;;;10.07;;
64832;SDS011;51290;45.060;38.948;2023-11-18T02:48:39;14.20;;;10.32;;
64832;SDS011;51290;45.060;38.948;2023-11-18T02:51:07;14.93;;;9.82;;
64832;SDS011;51290;45.060;38.948;2023-11-18T02:53:33;11.80;;;10.02;;
64832;SDS011;51290;45.060;38.948;2023-11-18T02:56:00;15.23;;;11.05;;
64832;SDS011;51290;45.060;38.948;2023-11-18T02:58:29;12.75;;;8.68;;
64832;SDS011;51290;45.060;38.948;2023-11-18T03:00:56;12.43;;;8.93;;
64832;SDS011;51290;45.060;38.948;2023-11-18T03:03:25;12.55;;;8.57;;
64832;SDS011;51290;45.060;38.948;2023-11-18T03:05:53;15.60;;;10.70;;
64832;SDS011;51290;45.060;38.948;2023-11-18T03:08:18;11.80;;;8.45;;
64832;SDS011;51290;45.060;38.948;2023-11-18T03:10:44;16.42;;;9.18;;
64832;SDS011;51290;45.060;38.948;2023-11-18T03:13:10;10.65;;;8.55;;
64832;SDS011;51290;45.060;38.948;2023-11-18T03:15:39;9.55;;;7.80;;
64832;SDS011;51290;45.060;38.948;2023-11-18T03:18:05;12.13;;;8.18;;
64832;SDS011;51290;45.060;38.948;2023-11-18T03:20:33;10.13;;;8.00;;
64832;SDS011;51290;45.060;38.948;2023-11-18T03:22:59;12.25;;;9.48;;
64832;SDS011;51290;45.060;38.948;2023-11-18T03:25:28;11.50;;;8.90;;
64832;SDS011;51290;45.060;38.948;2023-11-18T03:27:54;11.65;;;8.18;;
64832;SDS011;51290;45.060;38.948;2023-11-18T03:30:20;10.68;;;8.85;;
64832;SDS011;51290;45.060;38.948;2023-11-18T03:32:46;10.18;;;8.32;;
64832;SDS011;51290;45.060;38.948;2023-11-18T03:35:12;14.00;;;8.43;;
64832;SDS011;51290;45.060;38.948;2023-11-18T03:37:39;11.75;;;7.55;;
64832;SDS011;51290;45.060;38.948;2023-11-18T03:40:08;12.05;;;8.75;;
64832;SDS011;51290;45.060;38.948;2023-11-18T03:42:36;12.30;;;7.28;;
64832;SDS011;51290;45.060;38.948;2023-11-18T03:45:07;8.82;;;6.80;;
64832;SDS011;51290;45.060;38.948;2023-11-18T03:47:34;11.00;;;7.20;;
64832;SDS011;51290;45.060;38.948;2023-11-18T03:50:01;11.98;;;7.53;;
64832;SDS011;51290;45.060;38.948;2023-11-18T03:52:27;9.68;;;7.72;;
64832;SDS011;51290;45.060;38.948;2023-11-18T03:54:54;13.63;;;9.18;;
64832;SDS011;51290;45.060;38.948;2023-11-18T03:57:20;10.73;;;7.68;;
64832;SDS011;51290;45.060;38.948;2023-11-18T03:59:46;13.48;;;8.52;;
64832;SDS011;51290;45.060;38.948;2023-11-18T04:02:12;9.07;;;7.20;;
64832;SDS011;51290;45.060;38.948;2023-11-18T04:04:38;12.88;;;9.35;;
64832;SDS011;51290;45.060;38.948;2023-11-18T04:07:05;10.40;;;8.38;;
64832;SDS011;51290;45.060;38.948;2023-11-18T04:09:32;16.80;;;9.98;;
64832;SDS011;51290;45.060;38.948;2023-11-18T04:11:58;14.32;;;9.15;;
64832;SDS011;51290;45.060;38.948;2023-11-18T04:14:24;10.90;;;8.05;;
64832;SDS011;51290;45.060;38.948;2023-11-18T04:16:51;16.35;;;9.27;;
64832;SDS011;51290;45.060;38.948;2023-11-18T04:19:17;13.55;;;10.95;;
64832;SDS011;51290;45.060;38.948;2023-11-18T04:21:43;13.20;;;9.85;;
64832;SDS011;51290;45.060;38.948;2023-11-18T04:24:13;14.50;;;10.18;;
64832;SDS011;51290;45.060;38.948;2023-11-18T04:26:40;12.27;;;9.70;;
64832;SDS011;51290;45.060;38.948;2023-11-18T04:29:06;14.57;;;10.77;;
64832;SDS011;51290;45.060;38.948;2023-11-18T04:31:33;16.33;;;10.60;;
64832;SDS011;51290;45.060;38.948;2023-11-18T04:34:03;13.63;;;9.80;;
64832;SDS011;51290;45.060;38.948;2023-11-18T04:36:29;13.70;;;10.27;;
64832;SDS011;51290;45.060;38.948;2023-11-18T04:38:56;12.05;;;9.98;;
64832;SDS011;51290;45.060;38.948;2023-11-18T04:41:22;16.70;;;10.43;;
64832;SDS011;51290;45.060;38.948;2023-11-18T04:43:49;14.95;;;10.80;;
64832;SDS011;51290;45.060;38.948;2023-11-18T04:46:15;14.10;;;11.05;;
64832;SDS011;51290;45.060;38.948;2023-11-18T04:48:42;13.65;;;10.43;;
64832;SDS011;51290;45.060;38.948;2023-11-18T04:51:09;12.93;;;9.85;;
64832;SDS011;51290;45.060;38.948;2023-11-18T04:53:35;17.35;;;11.98;;
64832;SDS011;51290;45.060;38.948;2023-11-18T04:56:01;16.02;;;11.48;;
64832;SDS011;51290;45.060;38.948;2023-11-18T04:58:28;12.98;;;10.02;;
64832;SDS011;51290;45.060;38.948;2023-11-18T05:00:54;19.15;;;11.88;;
64832;SDS011;51290;45.060;38.948;2023-11-18T05:03:19;18.45;;;12.68;;
64832;SDS011;51290;45.060;38.948;2023-11-18T05:05:46;16.42;;;11.15;;
64832;SDS011;51290;45.060;38.948;2023-11-18T05:08:19;13.88;;;11.20;;
64832;SDS011;51290;45.060;38.948;2023-11-18T05:10:48;15.27;;;12.43;;
64832;SDS011;51290;45.060;38.948;2023-11-18T05:13:16;13.75;;;11.27;;
64832;SDS011;51290;45.060;38.948;2023-11-18T05:15:43;14.25;;;11.40;;
64832;SDS011;51290;45.060;38.948;2023-11-18T05:18:12;16.83;;;11.90;;
64832;SDS011;51290;45.060;38.948;2023-11-18T05:20:42;14.35;;;11.25;;
64832;SDS011;51290;45.060;38.948;2023-11-18T05:23:08;17.17;;;11.50;;
64832;SDS011;51290;45.060;38.948;2023-11-18T05:25:41;23.67;;;12.80;;
64832;SDS011;51290;45.060;38.948;2023-11-18T05:28:10;17.30;;;13.00;;
64832;SDS011;51290;45.060;38.948;2023-11-18T05:30:37;21.63;;;14.38;;
64832;SDS011;51290;45.060;38.948;2023-11-18T05:33:04;15.50;;;11.82;;
64832;SDS011;51290;45.060;38.948;2023-11-18T05:35:34;20.38;;;11.68;;
64832;SDS011;51290;45.060;38.948;2023-11-18T05:38:00;16.50;;;12.05;;
64832;SDS011;51290;45.060;38.948;2023-11-18T05:40:28;15.25;;;12.50;;
64832;SDS011;51290;45.060;38.948;2023-11-18T05:42:55;16.85;;;11.25;;
64832;SDS011;51290;45.060;38.948;2023-11-18T05:45:22;14.18;;;12.18;;
64832;SDS011;51290;45.060;38.948;2023-11-18T05:47:57;15.52;;;11.93;;
64832;SDS011;51290;45.060;38.948;2023-11-18T05:50:23;14.82;;;11.70;;
64832;SDS011;51290;45.060;38.948;2023-11-18T05:52:53;14.25;;;11.35;;
64832;SDS011;51290;45.060;38.948;2023-11-18T05:55:20;19.52;;;11.63;;
64832;SDS011;51290;45.060;38.948;2023-11-18T05:57:46;13.95;;;11.65;;
64832;SDS011;51290;45.060;38.948;2023-11-18T06:00:12;14.57;;;10.93;;
64832;SDS011;51290;45.060;38.948;2023-11-18T06:02:44;12.48;;;9.80;;
64832;SDS011;51290;45.060;38.948;2023-11-18T06:05:10;13.50;;;10.85;;
64832;SDS011;51290;45.060;38.948;2023-11-18T06:07:38;13.57;;;10.82;;
64832;SDS011;51290;45.060;38.948;2023-11-18T06:10:08;14.60;;;10.85;;
64832;SDS011;51290;45.060;38.948;2023-11-18T06:12:34;12.05;;;10.07;;
64832;SDS011;51290;45.060;38.948;2023-11-18T06:15:02;17.10;;;10.65;;
64832;SDS011;51290;45.060;38.948;2023-11-18T06:17:28;11.85;;;9.55;;
64832;SDS011;51290;45.060;38.948;2023-11-18T06:19:54;15.07;;;9.52;;
64832;SDS011;51290;45.060;38.948;2023-11-18T06:22:20;12.60;;;10.10;;
64832;SDS011;51290;45.060;38.948;2023-11-18T06:24:46;11.43;;;9.63;;
64832;SDS011;51290;45.060;38.948;2023-11-18T06:27:12;12.30;;;9.30;;
64832;SDS011;51290;45.060;38.948;2023-11-18T06:29:38;12.05;;;9.18;;
64832;SDS011;51290;45.060;38.948;2023-11-18T06:32:05;13.43;;;10.52;;
64832;SDS011;51290;45.060;38.948;2023-11-18T06:34:31;13.52;;;10.18;;
64832;SDS011;51290;45.060;38.948;2023-11-18T06:36:58;11.70;;;9.77;;
64832;SDS011;51290;45.060;38.948;2023-11-18T06:39:23;15.38;;;9.45;;
64832;SDS011;51290;45.060;38.948;2023-11-18T06:41:56;14.48;;;9.32;;
64832;SDS011;51290;45.060;38.948;2023-11-18T06:44:23;15.70;;;9.70;;
64832;SDS011;51290;45.060;38.948;2023-11-18T06:46:49;14.60;;;10.70;;
64832;SDS011;51290;45.060;38.948;2023-11-18T06:49:16;16.38;;;10.27;;
64832;SDS011;51290;45.060;38.948;2023-11-18T06:51:42;14.88;;;10.73;;
64832;SDS011;51290;45.060;38.948;2023-11-18T06:54:08;13.65;;;10.07;;
64832;SDS011;51290;45.060;38.948;2023-11-18T06:56:36;16.88;;;11.35;;
64832;SDS011;51290;45.060;38.948;2023-11-18T06:59:07;12.88;;;9.45;;
64832;SDS011;51290;45.060;38.948;2023-11-18T07:01:33;19.17;;;10.73;;
64832;SDS011;51290;45.060;38.948;2023-11-18T07:04:00;21.08;;;10.00;;
64832;SDS011;51290;45.060;38.948;2023-11-18T07:06:27;15.50;;;9.88;;
64832;SDS011;51290;45.060;38.948;2023-11-18T07:08:54;13.98;;;9.43;;
64832;SDS011;51290;45.060;38.948;2023-11-18T07:11:26;12.35;;;8.82;;
64832;SDS011;51290;45.060;38.948;2023-11-18T07:13:53;11.65;;;8.25;;
64832;SDS011;51290;45.060;38.948;2023-11-18T07:16:25;18.00;;;9.27;;
64832;SDS011;51290;45.060;38.948;2023-11-18T07:18:51;11.63;;;7.95;;
64832;SDS011;51290;45.060;38.948;2023-11-18T07:21:18;11.18;;;7.88;;
64832;SDS011;51290;45.060;38.948;2023-11-18T07:23:44;11.27;;;8.25;;
64832;SDS011;51290;45.060;38.948;2023-11-18T07:26:10;11.20;;;6.70;;
64832;SDS011;51290;45.060;38.948;2023-11-18T07:28:36;11.93;;;8.20;;
64832;SDS011;51290;45.060;38.948;2023-11-18T07:31:02;10.07;;;8.00;;
64832;SDS011;51290;45.060;38.948;2023-11-18T07:33:31;12.02;;;8.32;;
64832;SDS011;51290;45.060;38.948;2023-11-18T07:35:58;10.40;;;8.20;;
64832;SDS011;51290;45.060;38.948;2023-11-18T07:38:24;12.25;;;8.00;;
64832;SDS011;51290;45.060;38.948;2023-11-18T07:40:52;17.30;;;8.57;;
64832;SDS011;51290;45.060;38.948;2023-11-18T07:43:22;13.63;;;8.50;;
64832;SDS011;51290;45.060;38.948;2023-11-18T07:45:48;14.05;;;7.95;;
64832;SDS011;51290;45.060;38.948;2023-11-18T07:48:17;13.45;;;8.75;;
64832;SDS011;51290;45.060;38.948;2023-11-18T07:50:43;14.70;;;7.90;;
64832;SDS011;51290;45.060;38.948;2023-11-18T07:53:10;8.63;;;7.25;;
64832;SDS011;51290;45.060;38.948;2023-11-18T07:55:36;14.07;;;9.10;;
64832;SDS011;51290;45.060;38.948;2023-11-18T07:58:05;13.20;;;7.85;;
64832;SDS011;51290;45.060;38.948;2023-11-18T08:00:38;9.52;;;7.68;;
64832;SDS011;51290;45.060;38.948;2023-11-18T08:03:08;13.55;;;7.88;;
64832;SDS011;51290;45.060;38.948;2023-11-18T08:05:37;12.45;;;8.10;;
64832;SDS011;51290;45.060;38.948;2023-11-18T08:08:05;11.38;;;8.23;;
64832;SDS011;51290;45.060;38.948;2023-11-18T08:10:36;9.57;;;7.68;;
64832;SDS011;51290;45.060;38.948;2023-11-18T08:13:08;18.40;;;7.03;;
64832;SDS011;51290;45.060;38.948;2023-11-18T08:15:35;11.32;;;7.72;;
64832;SDS011;51290;45.060;38.948;2023-11-18T08:18:05;11.18;;;7.60;;
64832;SDS011;51290;45.060;38.948;2023-11-18T08:20:31;9.73;;;6.95;;
64832;SDS011;51290;45.060;38.948;2023-11-18T08:22:58;11.40;;;7.05;;
64832;SDS011;51290;45.060;38.948;2023-11-18T08:25:24;8.98;;;6.95;;
64832;SDS011;51290;45.060;38.948;2023-11-18T08:27:51;9.40;;;6.90;;
64832;SDS011;51290;45.060;38.948;2023-11-18T08:30:17;9.55;;;6.38;;
64832;SDS011;51290;45.060;38.948;2023-11-18T08:32:44;11.50;;;6.45;;
64832;SDS011;51290;45.060;38.948;2023-11-18T08:35:11;7.80;;;5.10;;
64832;SDS011;51290;45.060;38.948;2023-11-18T08:37:44;9.93;;;6.65;;
64832;SDS011;51290;45.060;38.948;2023-11-18T08:40:13;9.25;;;6.15;;
64832;SDS011;51290;45.060;38.948;2023-11-18T08:42:46;8.32;;;5.30;;
64832;SDS011;51290;45.060;38.948;2023-11-18T08:45:18;12.35;;;6.07;;
64832;SDS011;51290;45.060;38.948;2023-11-18T08:47:47;9.98;;;6.55;;
64832;SDS011;51290;45.060;38.948;2023-11-18T08:50:17;9.82;;;5.55;;
64832;SDS011;51290;45.060;38.948;2023-11-18T08:52:43;9.25;;;6.28;;
64832;SDS011;51290;45.060;38.948;2023-11-18T08:55:15;7.47;;;5.35;;
64832;SDS011;51290;45.060;38.948;2023-11-18T08:57:48;11.02;;;6.63;;
64832;SDS011;51290;45.060;38.948;2023-11-18T09:00:27;9.05;;;6.18;;
64832;SDS011;51290;45.060;38.948;2023-11-18T09:03:20;6.65;;;5.30;;
64832;SDS011;51290;45.060;38.948;2023-11-18T09:10:57;7.60;;;5.32;;
64832;SDS011;51290;45.060;38.948;2023-11-18T09:13:25;7.78;;;5.07;;
64832;SDS011;51290;45.060;38.948;2023-11-18T09:16:00;7.07;;;5.25;;
64832;SDS011;51290;45.060;38.948;2023-11-18T09:18:28;8.85;;;6.07;;
64832;SDS011;51290;45.060;38.948;2023-11-18T09:20:56;6.85;;;4.97;;
64832;SDS011;51290;45.060;38.948;2023-11-18T09:23:26;12.45;;;6.53;;
64832;SDS011;51290;45.060;38.948;2023-11-18T09:25:54;9.63;;;6.20;;
64832;SDS011;51290;45.060;38.948;2023-11-18T09:28:20;10.35;;;6.57;;
64832;SDS011;51290;45.060;38.948;2023-11-18T09:30:49;9.20;;;6.35;;
64832;SDS011;51290;45.060;38.948;2023-11-18T09:33:22;11.85;;;6.15;;
64832;SDS011;51290;45.060;38.948;2023-11-18T09:35:55;12.55;;;7.53;;
64832;SDS011;51290;45.060;38.948;2023-11-18T09:38:30;8.82;;;6.40;;
64832;SDS011;51290;45.060;38.948;2023-11-18T09:40:57;9.95;;;7.15;;
64832;SDS011;51290;45.060;38.948;2023-11-18T09:43:35;11.60;;;7.45;;
64832;SDS011;51290;45.060;38.948;2023-11-18T09:46:07;10.07;;;7.38;;
64832;SDS011;51290;45.060;38.948;2023-11-18T09:48:44;9.98;;;6.88;;
64832;SDS011;51290;45.060;38.948;2023-11-18T09:51:20;9.98;;;7.90;;
64832;SDS011;51290;45.060;38.948;2023-11-18T09:53:49;12.38;;;7.63;;
64832;SDS011;51290;45.060;38.948;2023-11-18T09:56:23;15.88;;;7.35;;
64832;SDS011;51290;45.060;38.948;2023-11-18T09:59:05;13.25;;;8.70;;
64832;SDS011;51290;45.060;38.948;2023-11-18T10:01:42;11.23;;;7.97;;
64832;SDS011;51290;45.060;38.948;2023-11-18T10:04:12;12.52;;;7.93;;
64832;SDS011;51290;45.060;38.948;2023-11-18T10:06:43;13.95;;;8.77;;
64832;SDS011;51290;45.060;38.948;2023-11-18T10:09:12;12.52;;;8.27;;
64832;SDS011;51290;45.060;38.948;2023-11-18T10:11:45;14.98;;;8.93;;
64832;SDS011;51290;45.060;38.948;2023-11-18T10:14:16;12.20;;;8.38;;
64832;SDS011;51290;45.060;38.948;2023-11-18T10:16:43;12.90;;;9.05;;
64832;SDS011;51290;45.060;38.948;2023-11-18T10:19:13;11.38;;;7.53;;
64832;SDS011;51290;45.060;38.948;2023-11-18T10:21:39;11.32;;;7.43;;
64832;SDS011;51290;45.060;38.948;2023-11-18T10:24:06;10.52;;;6.50;;
64832;SDS011;51290;45.060;38.948;2023-11-18T10:26:54;7.97;;;6.22;;
64832;SDS011;51290;45.060;38.948;2023-11-18T10:29:26;12.57;;;7.70;;
64832;SDS011;51290;45.060;38.948;2023-11-18T10:32:05;9.35;;;6.38;;
64832;SDS011;51290;45.060;38.948;2023-11-18T10:34:41;13.48;;;5.85;;
64832;SDS011;51290;45.060;38.948;2023-11-18T10:37:08;7.53;;;4.95;;
64832;SDS011;51290;45.060;38.948;2023-11-18T10:39:36;9.25;;;5.88;;
64832;SDS011;51290;45.060;38.948;2023-11-18T10:42:02;8.68;;;6.50;;
64832;SDS011;51290;45.060;38.948;2023-11-18T10:44:28;10.93;;;5.72;;
64832;SDS011;51290;45.060;38.948;2023-11-18T10:46:55;7.43;;;5.75;;
64832;SDS011;51290;45.060;38.948;2023-11-18T10:49:27;9.85;;;6.70;;
64832;SDS011;51290;45.060;38.948;2023-11-18T10:51:57;10.68;;;7.63;;
64832;SDS011;51290;45.060;38.948;2023-11-18T10:54:23;10.85;;;6.72;;
64832;SDS011;51290;45.060;38.948;2023-11-18T10:56:51;9.35;;;6.55;;
64832;SDS011;51290;45.060;38.948;2023-11-18T10:59:24;9.77;;;6.22;;
64832;SDS011;51290;45.060;38.948;2023-11-18T11:01:52;13.02;;;7.80;;
64832;SDS011;51290;45.060;38.948;2023-11-18T11:04:18;10.80;;;7.45;;
64832;SDS011;51290;45.060;38.948;2023-11-18T11:06:47;14.35;;;7.07;;
64832;SDS011;51290;45.060;38.948;2023-11-18T11:09:22;10.73;;;6.93;;
64832;SDS011;51290;45.060;38.948;2023-11-18T11:11:56;12.50;;;8.02;;
64832;SDS011;51290;45.060;38.948;2023-11-18T11:14:32;12.82;;;7.35;;
64832;SDS011;51290;45.060;38.948;2023-11-18T11:17:07;8.75;;;6.10;;
64832;SDS011;51290;45.060;38.948;2023-11-18T11:22:22;9.23;;;7.25;;
64832;SDS011;51290;45.060;38.948;2023-11-18T11:25:03;8.85;;;6.28;;
64832;SDS011;51290;45.060;38.948;2023-11-18T11:28:22;7.93;;;5.63;;
64832;SDS011;51290;45.060;38.948;2023-11-18T11:30:29;11.20;;;6.68;;
64832;SDS011;51290;45.060;38.948;2023-11-18T11:33:09;10.32;;;7.15;;
64832;SDS011;51290;45.060;38.948;2023-11-18T11:35:42;9.02;;;6.30;;
64832;SDS011;51290;45.060;38.948;2023-11-18T11:38:14;11.20;;;6.85;;
64832;SDS011;51290;45.060;38.948;2023-11-18T11:40:42;9.07;;;5.75;;
64832;SDS011;51290;45.060;38.948;2023-11-18T11:43:09;13.63;;;8.43;;
64832;SDS011;51290;45.060;38.948;2023-11-18T11:45:55;15.55;;;8.13;;
64832;SDS011;51290;45.060;38.948;2023-11-18T11:48:21;9.90;;;7.47;;
64832;SDS011;51290;45.060;38.948;2023-11-18T11:50:59;11.35;;;7.72;;
64832;SDS011;51290;45.060;38.948;2023-11-18T11:53:40;12.77;;;8.55;;
64832;SDS011;51290;45.060;38.948;2023-11-18T11:56:11;14.70;;;8.50;;
64832;SDS011;51290;45.060;38.948;2023-11-18T11:58:46;14.43;;;9.80;;
64832;SDS011;51290;45.060;38.948;2023-11-18T12:01:22;16.20;;;8.75;;
64832;SDS011;51290;45.060;38.948;2023-11-18T12:03:57;14.98;;;9.23;;
64832;SDS011;51290;45.060;38.948;2023-11-18T12:06:37;14.20;;;8.48;;
64832;SDS011;51290;45.060;38.948;2023-11-18T12:09:08;16.20;;;8.93;;
64832;SDS011;51290;45.060;38.948;2023-11-18T12:11:35;11.35;;;9.02;;
64832;SDS011;51290;45.060;38.948;2023-11-18T12:14:08;12.95;;;9.75;;
64832;SDS011;51290;45.060;38.948;2023-11-18T12:17:02;11.55;;;8.32;;
64832;SDS011;51290;45.060;38.948;2023-11-18T12:19:47;12.05;;;8.90;;
64832;SDS011;51290;45.060;38.948;2023-11-18T12:22:14;10.23;;;7.55;;
64832;SDS011;51290;45.060;38.948;2023-11-18T12:24:45;13.18;;;9.45;;
64832;SDS011;51290;45.060;38.948;2023-11-18T12:35:26;11.20;;;9.32;;
64832;SDS011;51290;45.060;38.948;2023-11-18T12:40:42;11.38;;;7.80;;
64832;SDS011;51290;45.060;38.948;2023-11-18T12:43:18;16.83;;;10.52;;
64832;SDS011;51290;45.060;38.948;2023-11-18T12:46:11;11.32;;;8.32;;
64832;SDS011;51290;45.060;38.948;2023-11-18T12:49:00;10.45;;;7.35;;
64832;SDS011;51290;45.060;38.948;2023-11-18T12:51:28;12.55;;;8.25;;
64832;SDS011;51290;45.060;38.948;2023-11-18T12:53:56;12.05;;;8.15;;
64832;SDS011;51290;45.060;38.948;2023-11-18T12:56:24;10.70;;;7.60;;
64832;SDS011;51290;45.060;38.948;2023-11-18T12:58:51;12.63;;;7.40;;
64832;SDS011;51290;45.060;38.948;2023-11-18T13:01:19;10.88;;;7.63;;
64832;SDS011;51290;45.060;38.948;2023-11-18T13:03:45;11.07;;;7.00;;
64832;SDS011;51290;45.060;38.948;2023-11-18T13:06:12;22.83;;;7.50;;
64832;SDS011;51290;45.060;38.948;2023-11-18T13:08:39;14.90;;;8.45;;
64832;SDS011;51290;45.060;38.948;2023-11-18T13:11:08;8.73;;;6.97;;
64832;SDS011;51290;45.060;38.948;2023-11-18T13:13:45;13.30;;;9.05;;
64832;SDS011;51290;45.060;38.948;2023-11-18T13:16:12;16.67;;;8.98;;
64832;SDS011;51290;45.060;38.948;2023-11-18T13:18:43;13.65;;;9.07;;
64832;SDS011;51290;45.060;38.948;2023-11-18T13:21:13;10.65;;;7.93;;
64832;SDS011;51290;45.060;38.948;2023-11-18T13:23:47;12.10;;;8.35;;
64832;SDS011;51290;45.060;38.948;2023-11-18T13:26:15;14.07;;;9.50;;
64832;SDS011;51290;45.060;38.948;2023-11-18T13:28:43;8.40;;;5.95;;
64832;SDS011;51290;45.060;38.948;2023-11-18T13:31:09;11.45;;;8.75;;
64832;SDS011;51290;45.060;38.948;2023-11-18T13:33:37;12.30;;;9.25;;
64832;SDS011;51290;45.060;38.948;2023-11-18T13:36:06;10.15;;;8.10;;
64832;SDS011;51290;45.060;38.948;2023-11-18T13:38:37;16.20;;;8.85;;
64832;SDS011;51290;45.060;38.948;2023-11-18T13:41:07;10.73;;;8.30;;
64832;SDS011;51290;45.060;38.948;2023-11-18T13:43:41;10.57;;;8.05;;
64832;SDS011;51290;45.060;38.948;2023-11-18T13:46:12;14.60;;;9.15;;
64832;SDS011;51290;45.060;38.948;2023-11-18T13:48:39;11.02;;;8.25;;
64832;SDS011;51290;45.060;38.948;2023-11-18T13:51:09;11.10;;;7.35;;
64832;SDS011;51290;45.060;38.948;2023-11-18T13:53:41;11.15;;;8.13;;
64832;SDS011;51290;45.060;38.948;2023-11-18T13:56:15;11.63;;;8.55;;
64832;SDS011;51290;45.060;38.948;2023-11-18T13:58:43;13.07;;;8.82;;
64832;SDS011;51290;45.060;38.948;2023-11-18T14:01:11;16.00;;;11.68;;
64832;SDS011;51290;45.060;38.948;2023-11-18T14:03:41;12.45;;;8.98;;
64832;SDS011;51290;45.060;38.948;2023-11-18T14:06:09;13.73;;;9.40;;
64832;SDS011;51290;45.060;38.948;2023-11-18T14:08:38;8.85;;;6.90;;
64832;SDS011;51290;45.060;38.948;2023-11-18T14:11:05;11.80;;;8.93;;
64832;SDS011;51290;45.060;38.948;2023-11-18T14:13:34;11.98;;;8.50;;
64832;SDS011;51290;45.060;38.948;2023-11-18T14:16:03;12.07;;;7.68;;
64832;SDS011;51290;45.060;38.948;2023-11-18T14:18:34;11.43;;;8.57;;
64832;SDS011;51290;45.060;38.948;2023-11-18T14:21:01;12.60;;;7.75;;
64832;SDS011;51290;45.060;38.948;2023-11-18T14:23:27;11.27;;;8.38;;
64832;SDS011;51290;45.060;38.948;2023-11-18T14:25:53;9.27;;;5.88;;
64832;SDS011;51290;45.060;38.948;2023-11-18T14:28:19;10.50;;;8.07;;
64832;SDS011;51290;45.060;38.948;2023-11-18T14:30:50;16.80;;;9.13;;
64832;SDS011;51290;45.060;38.948;2023-11-18T14:33:16;12.68;;;8.57;;
64832;SDS011;51290;45.060;38.948;2023-11-18T14:35:46;11.43;;;8.68;;
64832;SDS011;51290;45.060;38.948;2023-11-18T14:38:12;12.35;;;7.75;;
64832;SDS011;51290;45.060;38.948;2023-11-18T14:40:38;11.48;;;7.90;;
64832;SDS011;51290;45.060;38.948;2023-11-18T14:43:05;13.80;;;9.02;;
64832;SDS011;51290;45.060;38.948;2023-11-18T14:45:32;10.95;;;8.88;;
64832;SDS011;51290;45.060;38.948;2023-11-18T14:48:00;11.38;;;9.02;;
64832;SDS011;51290;45.060;38.948;2023-11-18T14:50:26;9.25;;;7.25;;